createdAt,value
2018-10-03T00:01:48.504Z,11.08
2018-10-03T00:06:48.962Z,10.98
2018-10-03T00:11:48.239Z,10.98
2018-10-03T00:16:48.441Z,10.88
2018-10-03T00:21:48.915Z,10.98
2018-10-03T00:26:48.497Z,10.98
2018-10-03T00:31:49.166Z,10.98
2018-10-03T00:36:48.261Z,10.98
2018-10-03T00:41:48.473Z,10.98
2018-10-03T00:46:48.842Z,10.98
2018-10-03T00:51:48.670Z,10.98
2018-10-03T00:56:49.198Z,11.08
2018-10-03T01:01:48.127Z,10.98
2018-10-03T01:06:48.662Z,10.98
2018-10-03T01:11:48.870Z,11.08
2018-10-03T01:16:48.782Z,11.08
2018-10-03T01:21:48.596Z,11.08
2018-10-03T01:26:48.199Z,11.08
2018-10-03T01:31:48.465Z,11.08
2018-10-03T01:36:48.906Z,11.08
2018-10-03T01:41:48.197Z,10.98
2018-10-03T01:46:48.471Z,10.98
2018-10-03T01:51:48.925Z,11.08
2018-10-03T01:56:48.528Z,10.98
2018-10-03T02:01:48.820Z,10.98
2018-10-03T02:06:48.368Z,10.88
2018-10-03T02:11:48.545Z,10.88
2018-10-03T02:16:48.872Z,10.88
2018-10-03T02:21:48.311Z,10.98
2018-10-03T02:26:48.905Z,10.98
2018-10-03T02:31:48.177Z,10.88
2018-10-03T02:36:48.665Z,10.98
2018-10-03T02:41:48.948Z,10.88
2018-10-03T02:46:48.181Z,10.98
2018-10-03T02:51:48.617Z,10.98
2018-10-03T02:56:48.240Z,10.98
2018-10-03T03:01:48.902Z,10.98
2018-10-03T03:06:49.020Z,10.98
2018-10-03T03:11:48.225Z,10.88
2018-10-03T03:16:48.536Z,10.88
2018-10-03T03:21:49.024Z,10.78
2018-10-03T03:26:48.598Z,10.78
2018-10-03T03:31:48.915Z,10.68
2018-10-03T03:36:48.411Z,10.78
2018-10-03T03:41:48.618Z,10.58
2018-10-03T03:46:48.892Z,10.58
2018-10-03T03:51:48.377Z,10.49
2018-10-03T03:56:49.000Z,10.49
2018-10-03T04:01:48.265Z,10.58
2018-10-03T04:06:48.756Z,10.58
2018-10-03T04:11:48.967Z,10.58
2018-10-03T04:16:48.269Z,10.58
2018-10-03T04:21:48.722Z,10.68
2018-10-03T04:26:48.393Z,10.78
2018-10-03T04:31:48.594Z,10.78
2018-10-03T04:36:49.041Z,10.68
2018-10-03T04:41:48.712Z,10.58
2018-10-03T04:46:48.567Z,10.68
2018-10-03T04:51:49.064Z,10.68
2018-10-03T04:56:48.610Z,10.68
2018-10-03T05:01:48.926Z,10.58
2018-10-03T05:06:48.437Z,10.49
2018-10-03T05:11:48.305Z,10.58
2018-10-03T05:16:49.013Z,10.58
2018-10-03T05:21:49.045Z,10.49
2018-10-03T05:26:48.627Z,10.58
2018-10-03T05:31:48.888Z,10.58
2018-10-03T05:36:48.756Z,10.58
2018-10-03T05:41:48.588Z,10.68
2018-10-03T05:46:48.874Z,10.58
2018-10-03T05:51:48.345Z,10.58
2018-10-03T05:56:49.015Z,10.49
2018-10-03T06:01:48.234Z,10.49
2018-10-03T06:06:48.698Z,10.49
2018-10-03T06:11:48.897Z,10.49
2018-10-03T06:16:48.219Z,10.49
2018-10-03T06:21:48.675Z,10.49
2018-10-03T06:26:48.236Z,10.49
2018-10-03T06:31:48.542Z,10.49
2018-10-03T06:36:48.961Z,10.49
2018-10-03T06:41:48.214Z,10.49
2018-10-03T06:46:48.482Z,10.39
2018-10-03T06:51:48.947Z,10.39
2018-10-03T06:56:48.608Z,10.49
2018-10-03T07:01:48.849Z,10.49
2018-10-03T07:06:48.340Z,10.58
2018-10-03T07:11:48.540Z,10.78
2018-10-03T07:16:48.847Z,10.78
2018-10-03T07:21:48.319Z,10.98
2018-10-03T07:26:49.279Z,10.98
2018-10-03T07:31:48.184Z,10.98
2018-10-03T07:36:48.620Z,11.08
2018-10-03T07:41:48.832Z,11.18
2018-10-03T07:46:48.122Z,11.28
2018-10-03T07:51:48.652Z,11.28
2018-10-03T07:56:48.198Z,11.48
2018-10-03T08:01:48.468Z,11.48
2018-10-03T08:06:48.960Z,11.58
2018-10-03T08:11:48.166Z,11.68
2018-10-03T08:16:48.457Z,11.78
2018-10-03T08:21:48.934Z,11.78
2018-10-03T08:26:48.523Z,11.78
2018-10-03T08:31:48.807Z,11.78
2018-10-03T08:36:48.302Z,11.78
2018-10-03T08:41:48.526Z,11.78
2018-10-03T08:46:48.825Z,11.78
2018-10-03T08:51:48.335Z,11.78
2018-10-03T08:56:48.899Z,11.78
2018-10-03T09:01:48.195Z,11.78
2018-10-03T09:06:48.681Z,11.78
2018-10-03T09:11:49.273Z,11.78
2018-10-03T09:16:48.188Z,11.78
2018-10-03T09:21:49.079Z,11.78
2018-10-03T09:26:48.225Z,13.38
2018-10-03T09:31:48.547Z,13.38
2018-10-03T09:36:49.055Z,13.38
2018-10-03T09:41:48.227Z,13.68
2018-10-03T09:46:48.510Z,14.08
2018-10-03T09:51:48.950Z,14.18
2018-10-03T09:56:48.538Z,13.76
2018-10-03T10:01:48.818Z,13.84
2018-10-03T10:06:48.325Z,14.08
2018-10-03T10:11:48.895Z,13.95
2018-10-03T10:16:48.834Z,13.77
2018-10-03T10:21:48.335Z,13.80
2018-10-03T10:26:48.928Z,13.50
2018-10-03T10:31:48.297Z,13.57
2018-10-03T10:36:48.681Z,13.95
2018-10-03T10:41:48.871Z,13.85
2018-10-03T10:46:48.649Z,14.57
2018-10-03T10:51:48.987Z,14.56
2018-10-03T10:56:48.206Z,14.43
2018-10-03T11:01:48.609Z,14.47
2018-10-03T11:06:49.456Z,14.55
2018-10-03T11:11:48.226Z,14.62
2018-10-03T11:16:48.776Z,14.72
2018-10-03T11:21:48.979Z,14.75
2018-10-03T11:26:48.607Z,15.00
2018-10-03T11:31:48.859Z,15.00
2018-10-03T11:36:48.319Z,15.05
2018-10-03T11:41:48.571Z,14.47
2018-10-03T11:46:48.812Z,14.49
2018-10-03T11:51:48.294Z,15.03
2018-10-03T11:56:48.891Z,14.62
2018-10-03T12:01:48.203Z,14.34
2018-10-03T12:06:48.717Z,13.93
2018-10-03T12:11:49.025Z,13.75
2018-10-03T12:16:48.289Z,14.03
2018-10-03T12:21:48.711Z,14.39
2018-10-03T12:26:48.280Z,14.52
2018-10-03T12:31:48.658Z,14.70
2018-10-03T12:36:49.054Z,14.83
2018-10-03T12:41:48.219Z,14.27
2018-10-03T12:46:48.516Z,14.31
2018-10-03T12:51:48.991Z,14.11
2018-10-03T12:56:48.658Z,14.19
2018-10-03T13:01:48.889Z,13.76
2018-10-03T13:06:48.396Z,13.74
2018-10-03T13:11:48.586Z,14.18
2018-10-03T13:16:48.880Z,13.84
2018-10-03T13:21:48.366Z,13.96
2018-10-03T13:26:48.972Z,14.03
2018-10-03T13:31:48.244Z,13.77
2018-10-03T13:36:48.725Z,13.64
2018-10-03T13:41:48.933Z,13.64
2018-10-03T13:46:48.556Z,14.14
2018-10-03T13:51:48.708Z,14.32
2018-10-03T13:56:48.280Z,14.02
2018-10-03T14:01:48.758Z,14.32
2018-10-03T14:06:49.140Z,14.43
2018-10-03T14:11:48.268Z,14.18
2018-10-03T14:16:48.591Z,14.03
2018-10-03T14:21:49.039Z,14.03
2018-10-03T14:26:48.627Z,13.59
2018-10-03T14:31:48.934Z,13.79
2018-10-03T14:36:48.382Z,14.37
2018-10-03T14:41:48.594Z,14.17
2018-10-03T14:46:49.328Z,14.50
2018-10-03T14:51:48.385Z,14.15
2018-10-03T14:56:48.996Z,14.23
2018-10-03T15:01:48.777Z,14.22
2018-10-03T15:06:48.762Z,13.98
2018-10-03T15:11:48.990Z,14.78
2018-10-03T15:16:48.264Z,14.79
2018-10-03T15:21:48.769Z,14.74
2018-10-03T15:26:48.339Z,14.56
2018-10-03T15:31:48.618Z,14.21
2018-10-03T15:36:49.088Z,14.70
2018-10-03T15:41:48.305Z,14.56
2018-10-03T15:46:48.596Z,14.51
2018-10-03T15:51:49.052Z,14.46
2018-10-03T15:56:48.647Z,14.40
2018-10-03T16:01:48.943Z,14.32
2018-10-03T16:06:48.476Z,14.25
2018-10-03T16:11:48.727Z,14.05
2018-10-03T16:16:49.032Z,14.17
2018-10-03T16:21:48.471Z,14.12
2018-10-03T16:26:48.673Z,13.92
2018-10-03T16:31:48.384Z,13.91
2018-10-03T16:36:48.767Z,13.73
2018-10-03T16:41:48.012Z,13.71
2018-10-03T16:46:48.365Z,13.88
2018-10-03T16:51:48.754Z,13.91
2018-10-03T16:56:48.370Z,13.41
2018-10-03T17:01:48.656Z,13.29
2018-10-03T17:06:48.292Z,13.17
2018-10-03T17:11:48.361Z,13.16
2018-10-03T17:16:48.687Z,13.36
2018-10-03T17:21:48.135Z,13.28
2018-10-03T17:26:48.741Z,12.82
2018-10-03T17:31:48.989Z,12.58
2018-10-03T17:36:48.469Z,12.71
2018-10-03T17:41:48.667Z,12.78
2018-10-03T17:46:48.977Z,12.67
2018-10-03T17:51:48.444Z,12.62
2018-10-03T17:56:47.999Z,12.79
2018-10-03T18:01:48.286Z,12.48
2018-10-03T18:06:48.828Z,12.08
2018-10-03T18:11:48.057Z,11.98
2018-10-03T18:16:48.435Z,11.88
2018-10-03T18:21:48.952Z,12.08
2018-10-03T18:26:48.516Z,12.18
2018-10-03T18:31:48.973Z,12.18
2018-10-03T18:36:48.466Z,12.48
2018-10-03T18:41:48.359Z,12.58
2018-10-03T18:46:49.127Z,12.38
2018-10-03T18:51:48.668Z,11.88
2018-10-03T18:56:49.421Z,11.48
2018-10-03T19:01:48.691Z,11.78
2018-10-03T19:06:49.839Z,11.88
2018-10-03T19:11:49.392Z,11.98
2018-10-03T19:16:48.498Z,12.08
2018-10-03T19:21:48.721Z,12.18
2018-10-03T19:26:49.049Z,11.68
2018-10-03T19:31:48.923Z,11.08
2018-10-03T19:36:49.949Z,10.68
2018-10-03T19:41:49.235Z,10.68
2018-10-03T19:46:49.007Z,10.58
2018-10-03T19:51:49.201Z,10.88
2018-10-03T19:56:48.617Z,10.78
2018-10-03T20:01:48.828Z,10.88
2018-10-03T20:06:48.309Z,10.78
2018-10-03T20:11:48.466Z,10.49
2018-10-03T20:16:48.785Z,10.78
2018-10-03T20:21:48.355Z,10.49
2018-10-03T20:26:48.844Z,10.39
2018-10-03T20:31:48.160Z,10.09
2018-10-03T20:36:48.651Z,9.99
2018-10-03T20:41:49.207Z,9.89
2018-10-03T20:46:48.182Z,9.69
2018-10-03T20:51:48.628Z,9.89
2018-10-03T20:56:48.211Z,10.09
2018-10-03T21:01:48.500Z,10.39
2018-10-03T21:06:49.022Z,10.09
2018-10-03T21:11:48.253Z,9.89
2018-10-03T21:16:48.548Z,9.89
2018-10-03T21:21:48.989Z,10.09
2018-10-03T21:26:48.598Z,9.79
2018-10-03T21:31:48.857Z,9.99
2018-10-03T21:36:48.311Z,9.39
2018-10-03T21:41:48.543Z,9.39
2018-10-03T21:46:48.835Z,9.49
2018-10-03T21:51:48.286Z,9.59
2018-10-03T21:56:48.930Z,9.19
2018-10-03T22:01:48.265Z,8.89
2018-10-03T22:06:48.729Z,8.69
2018-10-03T22:11:48.910Z,8.69
2018-10-03T22:16:48.214Z,8.69
2018-10-03T22:21:48.710Z,9.29
2018-10-03T22:26:48.295Z,9.09
2018-10-03T22:31:48.589Z,8.59
2018-10-03T22:36:49.069Z,8.39
2018-10-03T22:41:48.343Z,8.09
2018-10-03T22:46:48.609Z,8.09
2018-10-03T22:51:49.039Z,8.19
2018-10-03T22:56:48.730Z,8.39
2018-10-03T23:01:48.951Z,7.89
2018-10-03T23:06:48.439Z,7.89
2018-10-03T23:11:48.711Z,7.79
2018-10-03T23:16:48.984Z,7.89
2018-10-03T23:21:48.407Z,7.79
2018-10-03T23:26:48.054Z,7.49
2018-10-03T23:31:48.349Z,7.49
2018-10-03T23:36:48.763Z,7.49
2018-10-03T23:41:48.190Z,7.69
2018-10-03T23:46:48.315Z,7.59
2018-10-03T23:51:48.781Z,7.89
2018-10-03T23:56:48.437Z,7.89
